INFORMAÇÕES METEOROLÓGICAS
METAR FOR SBTF
ADDS - METARS form results

(0152 UTC 25 April 2019)
Data provider http://aviationweather.gov/metar/data/
 
Forecast for: SBTF (TEFE , BR)
Text: TAF SBTF 242200Z 2500/2512 17004KT 9999 SCT010 TN23/2504Z TX24/2511Z
Forecast period: 0000 to 1200 UTC 25 April 2019
Forecast type: FROM: standard forecast or significant change
Winds: from the S (170 degrees) at 5 MPH (4 knots; 2.1 m/s)
Visibility: 6 or more miles 10+ km)
Ceiling: at least 12,000 feet AGL
Clouds: scattered clouds at 1000 feet AGL
Weather: no significant weather forecast for this period
Text: PROB40 2510/2512 BKN006 RMK PEU
Forecast period: 1000 to 1200 UTC 25 April 2019
Forecast type: PROBABLE: 40 percent likelihood of the following during this time
Visibility: missing
Ceiling: 600 feet AGL
Clouds: broken clouds at 600 feet AGL
Weather: no significant weather forecast for this period

 MAPA DO AEROPORTO

 INFORMAÇÕES DA PISTA
Pista 15 Tamanho da pista 7218 ft Largura da pista 148 ft
Elevação da pista 0 ft Ranhura da pista 0 ft Proa da pista 0
Pista 33 Tamanho da pista 7218 ft Largura da pista 148 ft
Elevação da pista 0 ft Ranhura da pista 0 ft Proa da pista 0

 FREQUÊNCIAS DO AEROPORTO
Tipo AFIS Nome RDO Frequência 125.9 MHZ

 AUXÍLIOS DE NAVEGAÇÃO PRÓXIMOS AO AEROPORTO
Tipo VOR-DME Nome Tefe Frequência 112900 KHZ
Tipo NDB Nome Tefe Frequência 300 KHZ





Powered by Virtual Airlines Manager [v2.6.2]